Time;durP1;ratioP1;P1;durP2;ratioP2;P2;SDS_P1;SDS_P2;PMS_P1;PMS_P2;Temp;Humidity;BMP_temperature;BMP_pressure;BME280_temperature;BME280_humidity;BME280_pressure;Samples;Min_cycle;Max_cycle;Signal;HPM_P1;HPM_P2
2022/08/29 00:03:39;;;;;;;12.75;8.48;;;;;19.90;96574.00;;;;8453859;28;20219;-69
2022/08/29 00:08:15;;;;;;;13.25;8.60;;;;;19.80;96579.00;;;;8415419;28;20690;-67
2022/08/29 00:12:19;;;;;;;12.85;8.65;;;;;19.90;96585.00;;;;8425847;28;20310;-68
2022/08/29 00:16:22;;;;;;;15.93;8.15;;;;;19.90;96584.00;;;;8432081;28;20318;-69
2022/08/29 00:21:01;;;;;;;12.18;8.40;;;;;19.90;96584.00;;;;8432373;28;20215;-68
2022/08/29 00:25:05;;;;;;;11.38;8.68;;;;;19.80;96579.00;;;;8419507;28;20215;-67
2022/08/29 00:29:08;;;;;;;11.77;8.27;;;;;19.90;96575.00;;;;8432371;28;20312;-67
2022/08/29 00:33:46;;;;;;;11.40;7.65;;;;;19.80;96570.00;;;;8430912;28;20227;-68
2022/08/29 00:37:53;;;;;;;13.60;7.47;;;;;19.80;96575.00;;;;8431425;28;20298;-67
2022/08/29 00:41:56;;;;;;;18.40;8.93;;;;;19.80;96571.00;;;;8431942;28;20229;-69
2022/08/29 00:46:11;;;;;;;16.38;8.30;;;;;19.80;96568.00;;;;8430641;28;20625;-67
2022/08/29 00:50:40;;;;;;;14.13;8.13;;;;;19.70;96569.00;;;;8432029;28;20661;-69
2022/08/29 00:54:51;;;;;;;13.30;7.93;;;;;19.70;96568.00;;;;8431708;28;20223;-69
2022/08/29 00:58:59;;;;;;;11.75;8.30;;;;;19.60;96571.00;;;;8430355;28;20231;-69
2022/08/29 01:03:32;;;;;;;13.75;8.05;;;;;19.60;96580.00;;;;8430870;28;20303;-68
2022/08/29 01:07:35;;;;;;;12.45;7.65;;;;;19.60;96577.00;;;;8430185;28;20215;-68
2022/08/29 01:16:20;;;;;;;15.18;8.00;;;;;19.60;96574.00;;;;8430482;28;20301;-68
2022/08/29 01:20:35;;;;;;;16.45;7.68;;;;;19.60;96579.00;;;;8430203;28;20222;-68
2022/08/29 01:24:42;;;;;;;13.23;7.97;;;;;19.60;96582.00;;;;8428645;28;20637;-68
2022/08/29 01:28:50;;;;;;;16.85;7.70;;;;;19.60;96581.00;;;;8430342;28;20710;-69
2022/08/29 01:32:56;;;;;;;14.00;8.32;;;;;19.50;96581.00;;;;8429675;28;20297;-68
2022/08/29 01:37:01;;;;;;;16.92;7.78;;;;;19.40;96571.00;;;;8429715;28;20298;-68
2022/08/29 01:41:36;;;;;;;18.85;7.50;;;;;19.30;96579.00;;;;8429384;28;20222;-68
2022/08/29 01:45:43;;;;;;;13.02;8.35;;;;;19.20;96570.00;;;;8428615;28;20230;-69
2022/08/29 01:49:46;;;;;;;18.17;8.10;;;;;19.10;96581.00;;;;8429390;28;20223;-69
2022/08/29 01:53:50;;;;;;;16.20;7.80;;;;;19.00;96575.00;;;;8428551;28;20231;-69
2022/08/29 01:57:55;;;;;;;13.10;8.32;;;;;18.90;96584.00;;;;8429304;28;20226;-67
2022/08/29 02:02:15;;;;;;;14.82;8.85;;;;;18.70;96578.00;;;;8428295;28;20298;-68
2022/08/29 02:06:20;;;;;;;15.40;8.73;;;;;18.50;96573.00;;;;8428856;28;20626;-69
2022/08/29 02:10:24;;;;;;;14.65;8.85;;;;;18.40;96572.00;;;;8428837;28;20249;-69
2022/08/29 02:14:58;;;;;;;14.45;8.43;;;;;18.30;96565.00;;;;8428586;28;20215;-69
2022/08/29 02:19:03;;;;;;;18.63;9.27;;;;;18.20;96564.00;;;;8427166;28;20306;-68
2022/08/29 02:23:37;;;;;;;15.57;8.40;;;;;18.10;96560.00;;;;8428674;28;20230;-68
2022/08/29 02:27:41;;;;;;;16.38;8.63;;;;;18.10;96558.00;;;;8427206;28;20219;-68
2022/08/29 02:31:44;;;;;;;12.57;8.60;;;;;18.00;96549.00;;;;8427934;28;20219;-69
2022/08/29 02:36:23;;;;;;;18.15;9.25;;;;;17.90;96551.00;;;;8427811;28;20215;-68
2022/08/29 02:40:32;;;;;;;12.40;8.23;;;;;17.80;96556.00;;;;8427927;28;20269;-68
2022/08/29 02:44:36;;;;;;;22.13;9.50;;;;;17.80;96557.00;;;;8427965;28;20215;-69
2022/08/29 02:48:40;;;;;;;19.35;9.82;;;;;17.70;96551.00;;;;8427019;28;20230;-68
2022/08/29 02:53:15;;;;;;;15.98;9.15;;;;;17.60;96559.00;;;;8427890;28;20652;-68
2022/08/29 02:57:20;;;;;;;21.25;10.00;;;;;17.50;96563.00;;;;8427389;28;20309;-69
2022/08/29 03:01:26;;;;;;;12.88;9.98;;;;;17.50;96567.00;;;;8427282;28;20314;-69
2022/08/29 03:06:00;;;;;;;22.48;9.65;;;;;17.40;96568.00;;;;8422266;28;20219;-69
2022/08/29 03:10:05;;;;;;;16.73;9.52;;;;;17.50;96573.00;;;;8426968;28;20222;-69
2022/08/29 03:14:41;;;;;;;16.63;9.70;;;;;17.50;96570.00;;;;8426304;28;20286;-69
2022/08/29 03:19:15;;;;;;;19.58;10.18;;;;;17.50;96574.00;;;;8427194;28;20310;-68
2022/08/29 03:23:54;;;;;;;17.98;10.15;;;;;17.40;96569.00;;;;8426750;28;20254;-68
2022/08/29 03:28:29;;;;;;;14.75;10.43;;;;;17.30;96565.00;;;;8425407;28;20226;-68
2022/08/29 03:32:38;;;;;;;19.20;10.88;;;;;17.20;96571.00;;;;8427299;28;20217;-69
2022/08/29 03:36:41;;;;;;;15.07;10.52;;;;;17.20;96568.00;;;;8425752;28;20225;-70
2022/08/29 03:41:21;;;;;;;15.25;10.25;;;;;17.10;96566.00;;;;8425629;28;20215;-67
2022/08/29 03:45:58;;;;;;;16.25;10.55;;;;;17.10;96566.00;;;;8424526;28;20215;-68
2022/08/29 03:50:36;;;;;;;16.75;10.13;;;;;17.00;96571.00;;;;8427893;28;20227;-69
2022/08/29 03:55:22;;;;;;;19.05;11.10;;;;;16.90;96575.00;;;;8431503;28;20242;-70
2022/08/29 03:59:52;;;;;;;18.02;11.88;;;;;16.80;96575.00;;;;8432000;28;20219;-69
2022/08/29 04:09:04;;;;;;;17.67;10.40;;;;;16.80;96583.00;;;;8432817;28;20662;-70
2022/08/29 04:13:38;;;;;;;19.30;10.52;;;;;16.80;96587.00;;;;8432178;28;20233;-69
2022/08/29 04:18:14;;;;;;;22.35;10.25;;;;;16.80;96600.00;;;;8431576;28;20313;-69
2022/08/29 04:22:51;;;;;;;22.75;11.80;;;;;16.80;96591.00;;;;8431336;28;20640;-70
2022/08/29 04:27:29;;;;;;;16.63;11.13;;;;;16.80;96596.00;;;;8431800;28;20253;-70
2022/08/29 04:32:03;;;;;;;20.50;10.65;;;;;16.70;96600.00;;;;8431201;28;20225;-71
2022/08/29 04:36:41;;;;;;;25.17;12.00;;;;;16.70;96598.00;;;;8431746;28;20640;-70
2022/08/29 04:41:18;;;;;;;24.33;12.00;;;;;16.60;96605.00;;;;8420206;28;20257;-69
2022/08/29 04:45:57;;;;;;;18.65;11.40;;;;;16.60;96608.00;;;;8430790;28;20217;-69
2022/08/29 04:50:11;;;;;;;24.05;12.48;;;;;16.60;96611.00;;;;8430860;28;20594;-70
2022/08/29 04:54:45;;;;;;;17.45;12.20;;;;;16.70;96603.00;;;;8430633;28;20722;-69
2022/08/29 04:59:22;;;;;;;21.10;12.65;;;;;16.80;96610.00;;;;8430768;28;20304;-70
2022/08/29 05:03:27;;;;;;;20.27;11.52;;;;;16.90;96605.00;;;;8428541;28;20302;-66
2022/08/29 05:08:01;;;;;;;20.83;11.75;;;;;16.90;96609.00;;;;8427961;28;20238;-66
2022/08/29 05:12:38;;;;;;;23.33;12.60;;;;;17.00;96624.00;;;;8429240;28;20314;-66
2022/08/29 05:17:14;;;;;;;20.08;11.52;;;;;17.20;96628.00;;;;8424465;28;20245;-69
2022/08/29 05:21:56;;;;;;;20.73;11.50;;;;;17.20;96628.00;;;;8430036;28;20215;-69
2022/08/29 05:26:12;;;;;;;21.60;11.52;;;;;17.20;96630.00;;;;8429716;28;20251;-69
2022/08/29 05:30:46;;;;;;;17.27;11.93;;;;;17.20;96621.00;;;;8428298;28;20606;-70
2022/08/29 05:34:49;;;;;;;19.42;11.48;;;;;17.30;96625.00;;;;8430024;28;20231;-69
2022/08/29 05:38:54;;;;;;;19.10;12.07;;;;;17.40;96622.00;;;;8429529;28;20298;-69
2022/08/29 05:43:31;;;;;;;19.92;11.68;;;;;17.50;96631.00;;;;8429734;28;20241;-69
2022/08/29 05:48:09;;;;;;;19.35;11.23;;;;;17.50;96632.00;;;;8428690;28;20246;-67
2022/08/29 05:52:44;;;;;;;21.65;11.35;;;;;17.60;96631.00;;;;8429006;28;20246;-69
2022/08/29 05:57:21;;;;;;;18.92;10.52;;;;;17.70;96634.00;;;;8428828;28;20298;-68
2022/08/29 06:01:28;;;;;;;18.10;10.52;;;;;17.80;96643.00;;;;8428307;28;20226;-69
2022/08/29 06:05:59;;;;;;;14.50;10.27;;;;;17.90;96644.00;;;;8429115;28;20635;-70
2022/08/29 06:10:40;;;;;;;14.40;10.27;;;;;18.10;96650.00;;;;8428493;28;20283;-69
2022/08/29 06:15:10;;;;;;;16.08;11.18;;;;;18.30;96657.00;;;;8427727;28;20225;-68
2022/08/29 06:19:49;;;;;;;15.80;10.35;;;;;18.40;96651.00;;;;8428548;28;20632;-68
2022/08/29 06:24:23;;;;;;;20.90;10.63;;;;;18.50;96648.00;;;;8427927;28;20222;-69
2022/08/29 06:29:00;;;;;;;20.42;10.23;;;;;18.70;96654.00;;;;8427746;28;20219;-71
2022/08/29 06:33:03;;;;;;;19.73;11.48;;;;;19.00;96653.00;;;;8428845;28;20638;-70
2022/08/29 06:37:08;;;;;;;17.10;11.23;;;;;19.10;96654.00;;;;8427250;28;20251;-70
2022/08/29 06:41:13;;;;;;;20.52;11.55;;;;;19.20;96661.00;;;;8428183;28;20301;-70
2022/08/29 06:45:47;;;;;;;20.55;12.48;;;;;19.30;96650.00;;;;8426976;28;20727;-69
2022/08/29 06:49:50;;;;;;;18.92;11.73;;;;;19.40;96654.00;;;;8427789;28;20668;-69
2022/08/29 06:53:55;;;;;;;17.20;11.32;;;;;19.60;96663.00;;;;8427596;28;20237;-69
2022/08/29 06:57:59;;;;;;;22.80;12.48;;;;;19.90;96668.00;;;;8427479;28;20249;-69
2022/08/29 07:02:03;;;;;;;21.80;11.65;;;;;20.00;96673.00;;;;8426638;28;20628;-69
2022/08/29 07:06:40;;;;;;;20.10;12.00;;;;;20.10;96681.00;;;;8427329;28;20226;-69
2022/08/29 07:11:17;;;;;;;21.80;12.27;;;;;20.30;96673.00;;;;8426439;28;20234;-69
2022/08/29 07:15:53;;;;;;;22.60;11.50;;;;;20.50;96673.00;;;;8423173;28;20219;-69
2022/08/29 07:20:27;;;;;;;15.10;9.95;;;;;20.70;96672.00;;;;8426809;28;20264;-68
2022/08/29 07:25:04;;;;;;;18.13;10.52;;;;;21.20;96678.00;;;;8429419;28;20684;-68
2022/08/29 07:29:41;;;;;;;14.27;9.38;;;;;21.80;96675.00;;;;8433426;28;20318;-68
2022/08/29 07:34:20;;;;;;;14.68;9.15;;;;;22.30;96678.00;;;;8433490;28;20219;-68
2022/08/29 07:38:23;;;;;;;12.52;8.93;;;;;23.00;96676.00;;;;8432906;28;20294;-69
2022/08/29 07:43:01;;;;;;;15.35;9.75;;;;;23.80;96676.00;;;;8433354;28;20314;-69
2022/08/29 07:47:35;;;;;;;16.75;9.70;;;;;24.80;96686.00;;;;8432495;28;20306;-68
2022/08/29 07:52:11;;;;;;;17.02;9.88;;;;;25.80;96690.00;;;;8430834;28;20306;-69
2022/08/29 07:56:46;;;;;;;17.02;9.32;;;;;26.60;96690.00;;;;8432698;28;20345;-70
2022/08/29 08:01:20;;;;;;;17.10;9.43;;;;;27.20;96696.00;;;;8431561;28;20318;-69
2022/08/29 08:05:58;;;;;;;15.38;8.85;;;;;27.40;96699.00;;;;8432589;28;20294;-70
2022/08/29 08:10:34;;;;;;;13.18;8.07;;;;;27.70;96699.00;;;;8431887;28;20548;-70
2022/08/29 08:14:47;;;;;;;14.13;8.55;;;;;28.00;96700.00;;;;8431868;28;20233;-71
2022/08/29 08:19:24;;;;;;;15.57;8.70;;;;;28.30;96703.00;;;;8430963;28;20294;-70
2022/08/29 08:24:02;;;;;;;11.85;8.32;;;;;28.70;96709.00;;;;8431672;28;20215;-70
2022/08/29 08:28:39;;;;;;;11.75;8.10;;;;;29.20;96718.00;;;;8420531;28;20219;-70
2022/08/29 08:32:44;;;;;;;9.63;7.50;;;;;29.40;96722.00;;;;8431821;22;20789;-69
2022/08/29 08:36:51;;;;;;;19.60;7.43;;;;;29.70;96723.00;;;;8379804;28;20216;-72
2022/08/29 08:41:00;;;;;;;13.02;6.57;;;;;30.10;96729.00;;;;8379824;28;20681;-71
2022/08/29 08:45:07;;;;;;;10.25;7.43;;;;;30.20;96727.00;;;;8380502;28;20216;-72
2022/08/29 08:49:17;;;;;;;14.05;7.40;;;;;30.20;96723.00;;;;8380455;28;20219;-71
2022/08/29 08:53:26;;;;;;;10.52;6.88;;;;;30.40;96726.00;;;;8381733;28;20220;-72
2022/08/29 08:57:39;;;;;;;8.73;6.75;;;;;30.70;96723.00;;;;8373168;28;20223;-72
2022/08/29 09:01:45;;;;;;;13.20;6.93;;;;;30.60;96736.00;;;;8374326;28;20252;-71
2022/08/29 09:06:07;;;;;;;13.15;6.68;;;;;30.70;96740.00;;;;8381016;28;20224;-71
2022/08/29 09:10:18;;;;;;;10.35;7.00;;;;;31.00;96735.00;;;;8370104;28;20256;-74
2022/08/29 09:14:34;;;;;;;14.35;6.78;;;;;31.30;96727.00;;;;8375191;28;20238;-73
2022/08/29 09:18:39;;;;;;;10.40;6.78;;;;;31.70;96731.00;;;;8376880;28;20699;-76
2022/08/29 09:23:01;;;;;;;12.90;6.78;;;;;31.60;96727.00;;;;8376160;28;20369;-76
2022/08/29 09:27:05;;;;;;;7.45;6.28;;;;;30.60;96739.00;;;;8373958;28;20237;-72
2022/08/29 09:31:21;;;;;;;12.55;6.95;;;;;31.10;96720.00;;;;8378347;28;20712;-70
2022/08/29 09:35:27;;;;;;;10.93;6.57;;;;;30.90;96718.00;;;;8340522;28;20311;-76
2022/08/29 09:39:32;;;;;;;7.78;5.93;;;;;30.30;96730.00;;;;8344264;28;20228;-75
2022/08/29 09:43:48;;;;;;;13.63;6.57;;;;;29.70;96729.00;;;;8339140;28;20331;-72
2022/08/29 09:48:08;;;;;;;7.78;6.40;;;;;29.40;96716.00;;;;8331924;28;20228;-73
2022/08/29 09:52:15;;;;;;;9.23;5.43;;;;;29.40;96714.00;;;;8333395;28;20454;-75
2022/08/29 09:56:23;;;;;;;13.63;6.53;;;;;30.60;96720.00;;;;8337083;28;20291;-75
2022/08/29 10:00:30;;;;;;;8.60;5.50;;;;;31.90;96714.00;;;;8343350;28;20228;-71
2022/08/29 10:04:37;;;;;;;7.30;5.45;;;;;33.10;96715.00;;;;8341334;28;20700;-70
2022/08/29 10:08:42;;;;;;;6.45;5.22;;;;;33.80;96722.00;;;;8341917;28;20220;-70
2022/08/29 10:12:54;;;;;;;17.17;6.53;;;;;34.10;96710.00;;;;8345317;28;20224;-70
2022/08/29 10:18:19;;;;;;;7.43;5.35;;;;;32.90;96716.00;;;;8339321;28;20228;-71
2022/08/29 10:21:36;;;;;;;8.38;6.50;;;;;32.20;96713.00;;;;8317564;28;20311;-72
2022/08/29 10:25:41;;;;;;;10.23;6.43;;;;;31.70;96722.00;;;;8338391;28;20220;-69
2022/08/29 10:30:05;;;;;;;10.77;6.57;;;;;31.10;96720.00;;;;8340940;28;20334;-70
2022/08/29 10:34:22;;;;;;;9.00;6.28;;;;;30.20;96730.00;;;;8338238;28;20299;-70
2022/08/29 10:38:43;;;;;;;10.20;6.32;;;;;29.50;96720.00;;;;8338887;28;20223;-70
2022/08/29 10:42:49;;;;;;;9.85;6.63;;;;;29.00;96722.00;;;;8339789;28;20247;-72
2022/08/29 10:47:06;;;;;;;9.80;6.55;;;;;28.40;96711.00;;;;8344491;28;20228;-69
2022/08/29 10:51:20;;;;;;;13.00;7.22;;;;;28.90;96707.00;;;;8339872;28;20229;-70
2022/08/29 10:55:37;;;;;;;12.65;6.72;;;;;29.30;96712.00;;;;8332255;28;20230;-70
2022/08/29 10:59:53;;;;;;;11.10;7.45;;;;;28.70;96710.00;;;;8330702;28;20216;-72
2022/08/29 11:04:15;;;;;;;11.80;7.20;;;;;28.60;96713.00;;;;8330580;28;20227;-68
2022/08/29 11:08:26;;;;;;;8.80;6.72;;;;;30.10;96708.00;;;;8330733;28;20248;-71
2022/08/29 11:12:39;;;;;;;9.23;5.88;;;;;30.60;96711.00;;;;8329569;28;20229;-69
2022/08/29 11:16:46;;;;;;;9.75;6.93;;;;;31.30;96709.00;;;;8331704;28;20248;-69
2022/08/29 11:20:56;;;;;;;11.00;6.70;;;;;31.20;96702.00;;;;8331938;28;20232;-69
2022/08/29 11:25:05;;;;;;;9.15;6.78;;;;;31.10;96711.00;;;;8333143;28;20218;-70
2022/08/29 11:29:21;;;;;;;9.45;6.57;;;;;31.30;96708.00;;;;8327097;28;20649;-70
2022/08/29 11:33:32;;;;;;;10.85;6.55;;;;;32.10;96704.00;;;;8327777;28;20228;-69
2022/08/29 11:38:13;;;;;;;12.18;6.13;;;;;32.20;96704.00;;;;8343604;28;20220;-69
2022/08/29 11:42:19;;;;;;;7.55;6.18;;;;;32.20;96705.00;;;;8341917;28;20221;-72
2022/08/29 11:46:45;;;;;;;11.80;6.53;;;;;32.50;96689.00;;;;8342006;28;20647;-71
2022/08/29 11:50:59;;;;;;;8.38;5.80;;;;;32.60;96685.00;;;;8337635;28;20216;-69
2022/08/29 11:55:31;;;;;;;7.75;5.55;;;;;32.20;96689.00;;;;8335204;28;20224;-69
2022/08/29 11:59:56;;;;;;;10.02;5.85;;;;;32.00;96685.00;;;;8342120;28;20228;-70
2022/08/29 12:04:00;;;;;;;13.98;6.60;;;;;32.20;96690.00;;;;8337170;28;20238;-71
2022/08/29 12:08:12;;;;;;;7.88;5.03;;;;;32.80;96684.00;;;;8344124;28;20229;-71
2022/08/29 12:12:55;;;;;;;7.03;5.38;;;;;33.00;96684.00;;;;8347555;28;20765;-68
2022/08/29 12:17:02;;;;;;;5.85;5.22;;;;;32.90;96681.00;;;;8341356;28;20216;-69
2022/08/29 12:21:38;;;;;;;14.93;5.30;;;;;32.90;96679.00;;;;8336554;28;20644;-69
2022/08/29 12:25:47;;;;;;;9.38;5.25;;;;;33.10;96682.00;;;;8347346;28;20239;-70
2022/08/29 12:30:13;;;;;;;5.97;5.03;;;;;32.90;96683.00;;;;8333511;28;20225;-69
2022/08/29 12:34:34;;;;;;;6.03;5.10;;;;;32.70;96679.00;;;;8347389;28;20231;-69
2022/08/29 12:38:52;;;;;;;6.50;5.22;;;;;32.20;96678.00;;;;8348178;28;20226;-70
2022/08/29 12:43:25;;;;;;;7.55;5.13;;;;;31.90;96674.00;;;;8344080;28;20228;-68
2022/08/29 12:47:33;;;;;;;6.13;5.20;;;;;31.30;96680.00;;;;8342132;28;20220;-70
2022/08/29 12:51:40;;;;;;;13.18;5.85;;;;;30.90;96669.00;;;;8336182;28;20232;-71
2022/08/29 12:55:46;;;;;;;7.95;6.20;;;;;30.40;96672.00;;;;8359670;28;20747;-71
2022/08/29 12:59:52;;;;;;;10.13;5.65;;;;;29.80;96671.00;;;;8346030;28;20239;-71
2022/08/29 13:04:03;;;;;;;7.50;5.90;;;;;29.30;96664.00;;;;8345470;28;20231;-70
2022/08/29 13:08:10;;;;;;;6.97;5.95;;;;;28.90;96656.00;;;;8339716;28;20227;-70
2022/08/29 13:12:17;;;;;;;13.27;6.03;;;;;28.40;96651.00;;;;8344760;28;20775;-69
2022/08/29 13:16:28;;;;;;;7.72;6.75;;;;;28.20;96649.00;;;;8347619;28;20224;-69
2022/08/29 13:20:48;;;;;;;10.20;5.85;;;;;28.10;96648.00;;;;8339422;28;20814;-68
2022/08/29 13:25:02;;;;;;;9.93;5.47;;;;;28.20;96646.00;;;;8345267;28;20235;-68
2022/08/29 13:29:33;;;;;;;11.25;5.80;;;;;28.40;96638.00;;;;8345541;28;20232;-69
2022/08/29 13:33:38;;;;;;;8.50;5.70;;;;;28.60;96641.00;;;;8349686;28;20769;-68
2022/08/29 13:43:13;;;;;;;5.75;5.15;;;;;29.30;96633.00;;;;8362232;28;20220;-68
2022/08/29 13:47:54;;;;;;;8.18;5.63;;;;;29.80;96627.00;;;;8351964;28;20267;-67
2022/08/29 13:52:32;;;;;;;7.85;5.50;;;;;30.30;96623.00;;;;8361192;28;20597;-67
2022/08/29 13:57:06;;;;;;;6.07;5.18;;;;;30.70;96617.00;;;;8361667;28;20240;-68
2022/08/29 14:01:43;;;;;;;10.57;5.72;;;;;31.20;96616.00;;;;8363842;28;20366;-66
2022/08/29 14:06:10;;;;;;;7.57;5.53;;;;;31.70;96618.00;;;;8362788;28;20254;-67
2022/08/29 14:10:42;;;;;;;9.63;4.95;;;;;32.00;96613.00;;;;8362839;28;20224;-67
2022/08/29 14:15:17;;;;;;;5.72;5.05;;;;;32.10;96604.00;;;;8362622;28;20595;-67
2022/08/29 14:19:51;;;;;;;6.68;4.90;;;;;32.60;96603.00;;;;8361857;28;20228;-67
2022/08/29 14:23:54;;;;;;;9.07;5.50;;;;;33.10;96606.00;;;;8362230;28;20216;-67
2022/08/29 14:28:31;;;;;;;8.13;5.40;;;;;33.60;96606.00;;;;8361894;28;20212;-67
2022/08/29 14:33:07;;;;;;;7.80;5.03;;;;;33.80;96603.00;;;;8360625;28;20251;-68
2022/08/29 14:37:11;;;;;;;5.10;4.60;;;;;34.30;96608.00;;;;8366367;28;20224;-67
2022/08/29 14:41:14;;;;;;;7.03;4.97;;;;;34.50;96603.00;;;;8360841;28;20216;-67
2022/08/29 14:45:50;;;;;;;6.50;4.63;;;;;34.50;96598.00;;;;8361863;28;20238;-67
2022/08/29 14:50:23;;;;;;;8.20;4.97;;;;;34.30;96604.00;;;;8360711;28;20227;-67
2022/08/29 14:54:28;;;;;;;6.43;4.78;;;;;34.00;96597.00;;;;8361394;28;20221;-67
2022/08/29 14:58:31;;;;;;;6.88;4.93;;;;;33.30;96597.00;;;;8361639;28;20615;-67
2022/08/29 15:03:08;;;;;;;6.75;4.60;;;;;32.60;96597.00;;;;8359200;28;20227;-67
2022/08/29 15:07:43;;;;;;;8.68;5.10;;;;;32.30;96590.00;;;;8360947;28;20228;-67
2022/08/29 15:12:23;;;;;;;9.10;5.13;;;;;32.30;96599.00;;;;8352555;28;20220;-67
2022/08/29 15:16:54;;;;;;;7.38;4.72;;;;;32.20;96588.00;;;;8360323;28;20534;-68
2022/08/29 15:21:31;;;;;;;6.00;4.75;;;;;32.00;96581.00;;;;8359426;28;20224;-68
2022/08/29 15:25:37;;;;;;;9.23;4.97;;;;;31.80;96579.00;;;;8360641;28;20219;-67
2022/08/29 15:30:18;;;;;;;6.35;4.90;;;;;31.70;96580.00;;;;8359674;28;20220;-67
2022/08/29 15:34:49;;;;;;;8.70;5.45;;;;;31.70;96576.00;;;;8359238;28;20250;-68
2022/08/29 15:39:26;;;;;;;6.00;4.70;;;;;31.70;96585.00;;;;8359904;28;20270;-69
2022/08/29 15:44:03;;;;;;;7.13;4.65;;;;;31.70;96575.00;;;;8360241;28;20244;-69
2022/08/29 15:48:09;;;;;;;5.07;4.57;;;;;32.00;96576.00;;;;8365735;28;20212;-69
2022/08/29 15:52:16;;;;;;;5.82;4.38;;;;;32.00;96581.00;;;;8367116;28;20232;-69
2022/08/29 15:56:19;;;;;;;5.30;4.82;;;;;31.80;96576.00;;;;8365403;28;20222;-69
2022/08/29 16:00:56;;;;;;;5.53;4.93;;;;;31.60;96571.00;;;;8366159;28;20683;-69
2022/08/29 16:05:37;;;;;;;11.70;5.15;;;;;31.60;96565.00;;;;8366050;28;20211;-69
2022/08/29 16:09:41;;;;;;;11.55;5.13;;;;;32.00;96567.00;;;;8364699;28;20212;-69
2022/08/29 16:14:15;;;;;;;8.02;5.20;;;;;32.20;96565.00;;;;8364551;28;20225;-68
2022/08/29 16:18:50;;;;;;;7.07;4.80;;;;;32.30;96564.00;;;;8366206;28;20212;-68
2022/08/29 16:23:26;;;;;;;6.97;5.28;;;;;32.30;96560.00;;;;8364836;28;20224;-67
2022/08/29 16:28:00;;;;;;;5.47;4.28;;;;;32.20;96561.00;;;;8365474;28;20212;-68
2022/08/29 16:32:35;;;;;;;5.82;4.75;;;;;32.30;96568.00;;;;8365099;28;20608;-68
2022/08/29 16:36:38;;;;;;;4.90;4.32;;;;;32.40;96556.00;;;;8364785;28;20227;-66
2022/08/29 16:41:18;;;;;;;10.55;4.63;;;;;31.90;96559.00;;;;8364446;28;20239;-65
2022/08/29 16:45:21;;;;;;;5.68;4.43;;;;;31.40;96560.00;;;;8365468;28;20213;-67
2022/08/29 16:49:24;;;;;;;7.30;4.50;;;;;30.70;96556.00;;;;8364790;28;20303;-67
2022/08/29 16:54:01;;;;;;;6.43;5.28;;;;;29.70;96560.00;;;;8364290;28;20232;-67
2022/08/29 17:02:38;;;;;;;5.13;4.57;;;;;28.30;96555.00;;;;8363918;28;20208;-67
2022/08/29 17:07:16;;;;;;;8.48;5.13;;;;;27.80;96554.00;;;;8363759;28;20543;-67
2022/08/29 17:16:28;;;;;;;10.93;4.88;;;;;27.00;96556.00;;;;8363992;28;20658;-66
2022/08/29 17:21:07;;;;;;;11.48;5.43;;;;;26.60;96556.00;;;;8363494;28;20227;-66
2022/08/29 17:25:41;;;;;;;8.27;5.03;;;;;26.20;96561.00;;;;8364274;28;20648;-66
2022/08/29 17:30:18;;;;;;;11.93;5.65;;;;;25.80;96561.00;;;;8363179;28;20259;-66
2022/08/29 17:34:54;;;;;;;9.95;5.78;;;;;25.50;96557.00;;;;8361652;28;20262;-64
2022/08/29 17:39:32;;;;;;;7.85;5.57;;;;;25.10;96557.00;;;;8362756;28;20565;-64
2022/08/29 17:44:06;;;;;;;11.55;5.53;;;;;24.70;96551.00;;;;8362579;28;20224;-65
2022/08/29 17:48:40;;;;;;;13.30;6.22;;;;;24.40;96556.00;;;;8362773;28;20556;-64
2022/08/29 17:53:18;;;;;;;10.80;6.40;;;;;24.20;96552.00;;;;8362119;28;20538;-64
2022/08/29 17:57:57;;;;;;;9.45;5.80;;;;;23.90;96553.00;;;;8363058;28;20221;-64
2022/08/29 18:02:32;;;;;;;13.32;6.20;;;;;23.60;96561.00;;;;8362533;28;20307;-63
2022/08/29 18:07:09;;;;;;;12.38;6.32;;;;;23.30;96560.00;;;;8361346;28;20220;-64
2022/08/29 18:11:48;;;;;;;8.88;6.13;;;;;23.00;96565.00;;;;8362127;28;20519;-67
2022/08/29 18:16:21;;;;;;;12.68;6.90;;;;;22.80;96568.00;;;;8361288;28;20228;-67
2022/08/29 18:21:01;;;;;;;12.50;6.10;;;;;22.70;96574.00;;;;8362334;28;20216;-67
2022/08/29 18:25:35;;;;;;;10.82;6.13;;;;;22.70;96579.00;;;;8361519;28;20221;-66
2022/08/29 18:30:13;;;;;;;12.40;6.05;;;;;22.80;96581.00;;;;8360948;28;20731;-67
2022/08/29 18:34:47;;;;;;;8.35;6.40;;;;;22.80;96586.00;;;;8360448;28;20251;-67
2022/08/29 18:39:25;;;;;;;8.32;5.80;;;;;22.80;96582.00;;;;8362010;28;20622;-67
2022/08/29 18:43:59;;;;;;;8.10;5.57;;;;;22.80;96589.00;;;;8359605;28;20654;-67
2022/08/29 18:48:03;;;;;;;7.53;6.38;;;;;22.90;96602.00;;;;8361594;28;20298;-67
2022/08/29 18:52:38;;;;;;;7.97;6.15;;;;;22.80;96603.00;;;;8361405;28;20601;-67
2022/08/29 18:57:14;;;;;;;7.68;6.13;;;;;22.70;96604.00;;;;8360710;28;20251;-66
2022/08/29 19:01:53;;;;;;;11.40;6.72;;;;;22.60;96603.00;;;;8360145;28;20213;-67
2022/08/29 19:06:27;;;;;;;10.23;6.80;;;;;22.50;96602.00;;;;8357307;28;20220;-67
2022/08/29 19:11:05;;;;;;;13.77;6.53;;;;;22.30;96611.00;;;;8360795;28;20220;-67
2022/08/29 19:15:40;;;;;;;12.95;6.65;;;;;22.20;96615.00;;;;8359731;28;20315;-67
2022/08/29 19:24:50;;;;;;;12.40;7.40;;;;;21.90;96619.00;;;;8360322;28;20222;-69
2022/08/29 19:29:27;;;;;;;10.75;7.75;;;;;21.80;96617.00;;;;8360230;28;20221;-68
2022/08/29 19:34:04;;;;;;;10.70;7.65;;;;;21.70;96615.00;;;;8358902;28;20673;-68
2022/08/29 19:43:28;;;;;;;10.38;7.10;;;;;21.30;96614.00;;;;8360033;28;20310;-69
2022/08/29 19:48:00;;;;;;;11.38;7.15;;;;;21.10;96619.00;;;;8360176;28;20312;-68
2022/08/29 19:52:04;;;;;;;13.38;7.68;;;;;20.90;96625.00;;;;8360504;28;20216;-69
2022/08/29 19:56:07;;;;;;;9.88;6.95;;;;;20.80;96626.00;;;;8360275;28;20626;-70
2022/08/29 20:00:46;;;;;;;12.93;7.68;;;;;20.60;96637.00;;;;8356762;28;20221;-69
2022/08/29 20:04:51;;;;;;;10.60;7.15;;;;;20.40;96636.00;;;;8360056;28;20223;-69
2022/08/29 20:09:25;;;;;;;10.73;8.05;;;;;20.30;96640.00;;;;8359674;28;20622;-69
2022/08/29 20:14:04;;;;;;;14.55;8.68;;;;;20.20;96640.00;;;;8359439;28;20232;-69
2022/08/29 20:18:07;;;;;;;11.75;7.95;;;;;20.10;96650.00;;;;8360240;28;20315;-69
2022/08/29 20:22:44;;;;;;;10.93;8.00;;;;;19.90;96642.00;;;;8359929;28;20216;-69
2022/08/29 20:26:49;;;;;;;11.98;7.75;;;;;19.70;96640.00;;;;8359157;28;20315;-70
2022/08/29 20:30:56;;;;;;;15.40;8.70;;;;;19.60;96641.00;;;;8362644;28;20606;-71
2022/08/29 20:39:54;;;;;;;12.02;7.97;;;;;19.40;96632.00;;;;8364778;28;20244;-71
2022/08/29 20:44:05;;;;;;;12.55;8.90;;;;;19.30;96636.00;;;;8364760;28;20256;-72
2022/08/29 20:48:33;;;;;;;12.82;8.40;;;;;19.30;96630.00;;;;8364991;28;20235;-71
2022/08/29 20:52:52;;;;;;;15.27;8.70;;;;;19.20;96635.00;;;;8365364;28;20624;-71
2022/08/29 20:56:57;;;;;;;14.80;8.70;;;;;19.10;96646.00;;;;8365366;28;20756;-70
2022/08/29 21:01:31;;;;;;;13.32;8.60;;;;;19.10;96646.00;;;;8363472;28;20315;-71
2022/08/29 21:05:41;;;;;;;13.90;9.23;;;;;19.10;96637.00;;;;8364664;28;20304;-71
2022/08/29 21:10:12;;;;;;;13.32;8.48;;;;;19.00;96637.00;;;;8364478;28;20610;-71
2022/08/29 21:14:16;;;;;;;16.77;9.20;;;;;18.90;96639.00;;;;8363626;28;20316;-70
2022/08/29 21:18:20;;;;;;;14.32;8.90;;;;;18.70;96640.00;;;;8362041;28;20661;-72
2022/08/29 21:22:59;;;;;;;14.00;9.05;;;;;18.60;96644.00;;;;8364104;28;20216;-71
2022/08/29 21:27:33;;;;;;;17.45;9.10;;;;;18.60;96650.00;;;;8362820;28;20278;-71
2022/08/29 21:31:38;;;;;;;15.30;9.18;;;;;18.60;96653.00;;;;8363728;28;20221;-71
2022/08/29 21:36:13;;;;;;;12.55;8.48;;;;;18.60;96646.00;;;;8363140;28;20235;-72
2022/08/29 21:40:17;;;;;;;16.17;8.93;;;;;18.60;96642.00;;;;8363300;28;20226;-71
2022/08/29 21:44:54;;;;;;;13.27;9.70;;;;;18.50;96637.00;;;;8362788;28;20216;-71
2022/08/29 21:49:02;;;;;;;13.98;9.35;;;;;18.40;96641.00;;;;8363426;28;20407;-71
2022/08/29 21:53:33;;;;;;;15.40;9.65;;;;;18.40;96648.00;;;;8362639;28;20252;-72
2022/08/29 21:57:57;;;;;;;14.50;7.93;;;;;18.40;96647.00;;;;8362508;28;20229;-71
2022/08/29 22:02:19;;;;;;;18.23;9.52;;;;;18.30;96648.00;;;;8361619;28;20638;-72
2022/08/29 22:06:24;;;;;;;11.27;9.18;;;;;18.30;96650.00;;;;8362079;28;20548;-71
2022/08/29 22:10:57;;;;;;;16.83;9.40;;;;;18.10;96656.00;;;;8363376;28;20216;-73
2022/08/29 22:19:36;;;;;;;14.25;10.02;;;;;17.90;96657.00;;;;8362388;28;20307;-73